Walton, Texas
Current Conditions -  °F | °C
As of 4:35 AM on Friday 21 Nov 2014 (Local Time) from KF44 Reporting Station
Drizzle Drizzle  
Wind Chill: 57°   Ceiling: 800
Heat Index: 57°   Visibility: 10mi
Dew Point: 57°   Wind: 7mph
Humidity: 100%   Direction: 140°SE
Pressure: 30.09"   Gusts: NA
Location:  32.2052°N, 95.8517°W
Report Text: KF44 211035Z AUTO 14006KT 10SM -DZ OVC008 14/14 A3009 RMK AO2
Loading
Personal Weather Stations






























Interactive Weather Map New forecast layout! Learn more

10-Day Weather Forecast

Advertisements
Track Severe Weather on mobile